Time;durP1;ratioP1;P1;durP2;ratioP2;P2;SDS_P1;SDS_P2;PMS_P1;PMS_P2;Temp;Humidity;BMP_temperature;BMP_pressure;BME280_temperature;BME280_humidity;BME280_pressure;Samples;Min_cycle;Max_cycle;Signal;HPM_P1;HPM_P2
2021/05/26 00:00:47;;;;;;;5.88;3.92;;;10.20;87.90;;;;;;2064245;28;20026;-84
2021/05/26 00:01:48;;;;;;;8.07;3.80;;;10.20;87.90;;;;;;2080075;28;20124;-84
2021/05/26 00:02:48;;;;;;;6.90;4.32;;;10.20;88.00;;;;;;2075298;28;20124;-85
2021/05/26 00:03:50;;;;;;;5.25;3.70;;;10.20;87.90;;;;;;2069309;28;20462;-84
2021/05/26 00:04:51;;;;;;;5.45;3.67;;;10.20;87.80;;;;;;2065205;28;20081;-84
2021/05/26 00:05:52;;;;;;;6.82;3.58;;;10.20;87.80;;;;;;2075061;28;20029;-85
2021/05/26 00:06:53;;;;;;;7.15;3.60;;;10.20;87.80;;;;;;2073118;28;20038;-85
2021/05/26 00:07:53;;;;;;;6.75;3.75;;;10.20;87.80;;;;;;2064003;28;20031;-84
2021/05/26 00:08:54;;;;;;;5.00;3.15;;;10.20;87.70;;;;;;2064055;28;20084;-85
2021/05/26 00:09:55;;;;;;;5.18;3.15;;;10.20;87.70;;;;;;2064735;28;20084;-84
2021/05/26 00:10:56;;;;;;;5.50;3.47;;;10.20;87.60;;;;;;2056383;28;20033;-84
2021/05/26 00:11:57;;;;;;;6.22;3.00;;;10.30;87.60;;;;;;2056716;28;20098;-84
2021/05/26 00:12:58;;;;;;;5.35;3.10;;;10.30;87.60;;;;;;2061811;28;20065;-85
2021/05/26 00:13:58;;;;;;;5.68;2.95;;;10.30;87.60;;;;;;2077345;28;20433;-85
2021/05/26 00:14:59;;;;;;;6.07;2.83;;;10.30;87.50;;;;;;2083057;28;20384;-85
2021/05/26 00:16:00;;;;;;;5.82;3.03;;;10.30;87.40;;;;;;2073232;28;20025;-85
2021/05/26 00:17:02;;;;;;;5.63;2.90;;;10.30;87.40;;;;;;2077429;28;20018;-83
2021/05/26 00:18:03;;;;;;;5.22;2.70;;;10.30;87.40;;;;;;2082626;28;20029;-85
2021/05/26 00:19:07;;;;;;;4.50;2.83;;;10.30;87.40;;;;;;2080541;28;20041;-83
2021/05/26 00:20:08;;;;;;;5.97;3.00;;;10.30;87.30;;;;;;2083395;28;20018;-84
2021/05/26 00:21:10;;;;;;;4.63;2.50;;;10.30;87.30;;;;;;2082228;28;20006;-84
2021/05/26 00:22:11;;;;;;;4.20;2.42;;;10.40;87.40;;;;;;2087389;28;20063;-84
2021/05/26 00:23:11;;;;;;;5.70;2.80;;;10.40;87.40;;;;;;2091459;28;20029;-85
2021/05/26 00:24:12;;;;;;;5.28;2.60;;;10.30;87.30;;;;;;2077600;28;20123;-84
2021/05/26 00:25:13;;;;;;;5.03;2.30;;;10.40;87.30;;;;;;2073214;28;20053;-85
2021/05/26 00:26:14;;;;;;;3.60;2.35;;;10.40;87.20;;;;;;2059247;28;20066;-84
2021/05/26 00:27:15;;;;;;;4.18;2.38;;;10.40;87.90;;;;;;2066855;28;20031;-84
2021/05/26 00:28:16;;;;;;;4.55;2.55;;;10.40;87.20;;;;;;2073468;28;20065;-85
2021/05/26 00:29:16;;;;;;;3.63;2.15;;;10.40;87.20;;;;;;2068026;28;20015;-84
2021/05/26 00:30:18;;;;;;;4.43;2.13;;;10.40;87.20;;;;;;2086539;28;20025;-85
2021/05/26 00:31:22;;;;;;;4.13;2.38;;;10.40;87.10;;;;;;2073435;28;20082;-84
2021/05/26 00:32:23;;;;;;;3.88;2.05;;;10.40;87.10;;;;;;2080687;28;20540;-85
2021/05/26 00:33:24;;;;;;;4.80;1.90;;;10.40;87.10;;;;;;2077915;28;20022;-85
2021/05/26 00:34:24;;;;;;;3.70;2.10;;;10.40;87.00;;;;;;2074279;28;20084;-85
2021/05/26 00:35:25;;;;;;;4.07;2.10;;;10.40;87.00;;;;;;2068441;28;20095;-85
2021/05/26 00:36:26;;;;;;;3.22;1.90;;;10.40;87.00;;;;;;2075928;28;20057;-85
2021/05/26 00:37:26;;;;;;;3.30;1.80;;;10.30;86.90;;;;;;2070785;28;20400;-85
2021/05/26 00:38:27;;;;;;;3.10;1.70;;;10.30;86.90;;;;;;2061620;28;22531;-85
2021/05/26 00:39:28;;;;;;;2.97;1.70;;;10.30;86.90;;;;;;2050613;28;20019;-85
2021/05/26 00:40:28;;;;;;;2.58;1.60;;;10.30;87.00;;;;;;2066951;28;20096;-84
2021/05/26 00:41:30;;;;;;;1.90;1.35;;;10.30;87.00;;;;;;2071244;28;20084;-85
2021/05/26 00:42:31;;;;;;;2.22;1.30;;;10.30;86.90;;;;;;2072315;28;20081;-84
2021/05/26 00:43:31;;;;;;;2.28;1.40;;;10.20;86.80;;;;;;2070467;28;20034;-85
2021/05/26 00:44:32;;;;;;;3.50;1.48;;;10.20;86.80;;;;;;2077210;28;20472;-85
2021/05/26 00:45:33;;;;;;;1.58;1.00;;;10.20;86.80;;;;;;2071504;28;20026;-85
2021/05/26 00:46:44;;;;;;;3.20;1.13;;;10.20;86.80;;;;;;2073589;28;20034;-85
2021/05/26 00:47:46;;;;;;;;;;;10.20;86.70;;;;;;2076844;28;20077;-85
2021/05/26 00:48:46;;;;;;;1.88;1.00;;;10.10;86.60;;;;;;2078860;28;19951;-85
2021/05/26 00:49:48;;;;;;;2.15;1.08;;;10.10;86.60;;;;;;2080721;28;20025;-84
2021/05/26 00:50:48;;;;;;;2.00;0.82;;;10.10;86.50;;;;;;2075012;28;20089;-84
2021/05/26 00:51:50;;;;;;;1.75;0.88;;;10.00;86.50;;;;;;2075015;28;20030;-84
2021/05/26 00:52:52;;;;;;;1.20;0.88;;;10.00;86.50;;;;;;2073859;28;20015;-84
2021/05/26 00:53:52;;;;;;;2.10;0.80;;;10.00;86.50;;;;;;2073026;28;20460;-85
2021/05/26 00:54:53;;;;;;;2.13;0.80;;;10.00;86.50;;;;;;2064988;28;20026;-84
2021/05/26 00:55:54;;;;;;;2.75;0.95;;;10.00;86.50;;;;;;2064413;28;20485;-85
2021/05/26 00:56:54;;;;;;;1.48;0.70;;;9.90;86.40;;;;;;2080120;28;20027;-84
2021/05/26 00:57:55;;;;;;;2.08;0.65;;;9.90;86.40;;;;;;2072575;28;20508;-84
2021/05/26 00:58:56;;;;;;;0.90;0.70;;;9.90;86.50;;;;;;2066061;28;20077;-84
2021/05/26 00:59:57;;;;;;;2.65;0.90;;;9.90;86.40;;;;;;2067387;28;20037;-84
2021/05/26 01:00:57;;;;;;;2.15;0.90;;;9.80;86.40;;;;;;2056078;28;20038;-84
2021/05/26 01:01:58;;;;;;;1.80;0.68;;;9.80;86.40;;;;;;2055180;28;20023;-84
2021/05/26 01:02:59;;;;;;;3.15;1.00;;;9.80;86.40;;;;;;2071079;28;20030;-84
2021/05/26 01:04:00;;;;;;;2.53;0.70;;;9.80;86.40;;;;;;2064192;28;20072;-85
2021/05/26 01:05:00;;;;;;;2.38;1.13;;;9.80;86.40;;;;;;2070716;28;20041;-85
2021/05/26 01:06:01;;;;;;;1.92;0.80;;;9.80;86.40;;;;;;2072440;28;20037;-84
2021/05/26 01:07:02;;;;;;;2.03;1.00;;;9.80;86.50;;;;;;2070219;28;20029;-84
2021/05/26 01:08:03;;;;;;;0.70;0.40;;;9.90;86.50;;;;;;2069226;28;20491;-85
2021/05/26 01:09:03;;;;;;;1.23;0.70;;;9.80;86.40;;;;;;2064122;28;20399;-84
2021/05/26 01:10:05;;;;;;;1.02;0.70;;;9.90;86.50;;;;;;2063758;28;20034;-84
2021/05/26 01:11:06;;;;;;;0.88;0.50;;;9.90;86.50;;;;;;2056632;28;20501;-84
2021/05/26 01:12:07;;;;;;;1.75;0.52;;;9.90;86.50;;;;;;2077008;28;20061;-84
2021/05/26 01:13:09;;;;;;;1.38;0.55;;;9.80;86.50;;;;;;2073425;28;20029;-84
2021/05/26 01:14:10;;;;;;;1.85;0.75;;;9.80;86.50;;;;;;2063831;28;20026;-84
2021/05/26 01:15:12;;;;;;;1.95;0.75;;;9.80;86.50;;;;;;2063831;28;20022;-83
2021/05/26 01:16:13;;;;;;;1.60;0.77;;;9.90;86.60;;;;;;2064380;28;20110;-84
2021/05/26 01:17:14;;;;;;;1.80;0.70;;;9.90;86.60;;;;;;2063525;28;20030;-84
2021/05/26 01:18:26;;;;;;;2.00;0.63;;;9.90;86.60;;;;;;2068863;28;20076;-84
2021/05/26 01:19:26;;;;;;;2.20;0.82;;;9.80;86.60;;;;;;2069552;28;20048;-84
2021/05/26 01:20:29;;;;;;;1.13;0.60;;;9.80;86.60;;;;;;2061238;28;20053;-83
2021/05/26 01:21:30;;;;;;;1.33;0.60;;;9.80;87.30;;;;;;2062308;28;20030;-83
2021/05/26 01:22:30;;;;;;;2.00;0.80;;;9.80;86.70;;;;;;2064026;28;20625;-84
2021/05/26 01:23:31;;;;;;;1.27;0.70;;;9.80;86.70;;;;;;2067013;28;20501;-83
2021/05/26 01:24:32;;;;;;;0.77;0.50;;;9.80;86.70;;;;;;2076327;28;20022;-84
2021/05/26 01:25:33;;;;;;;1.15;0.60;;;9.80;86.80;;;;;;2071206;28;20125;-83
2021/05/26 01:26:34;;;;;;;1.48;0.57;;;9.80;86.80;;;;;;2063867;28;20519;-84
2021/05/26 01:27:35;;;;;;;1.52;0.70;;;9.80;86.90;;;;;;2070644;28;20072;-84
2021/05/26 01:28:37;;;;;;;1.52;0.70;;;9.80;86.90;;;;;;2072266;28;20026;-84
2021/05/26 01:29:37;;;;;;;1.50;0.70;;;9.80;86.90;;;;;;2056037;28;20117;-84
2021/05/26 01:30:38;;;;;;;2.13;0.70;;;9.80;86.90;;;;;;2062792;28;20022;-83
2021/05/26 01:31:39;;;;;;;1.75;0.65;;;9.80;86.90;;;;;;2065867;28;20480;-84
2021/05/26 01:32:51;;;;;;;1.30;0.77;;;9.80;86.90;;;;;;2074619;28;20391;-84
2021/05/26 01:33:52;;;;;;;2.80;0.90;;;9.80;87.00;;;;;;2070402;28;20022;-84
2021/05/26 01:34:53;;;;;;;2.55;0.80;;;9.80;87.00;;;;;;2064556;28;20574;-84
2021/05/26 01:35:53;;;;;;;1.70;0.90;;;9.70;87.00;;;;;;2065068;28;20412;-84
2021/05/26 01:36:54;;;;;;;2.30;0.93;;;9.70;87.10;;;;;;2069354;28;20030;-84
2021/05/26 01:37:55;;;;;;;2.25;0.90;;;9.70;87.20;;;;;;2071839;28;20038;-83
2021/05/26 01:38:55;;;;;;;1.30;0.80;;;9.70;87.30;;;;;;2069471;28;20120;-84
2021/05/26 01:39:56;;;;;;;2.47;0.90;;;9.70;88.00;;;;;;2056000;28;20386;-84
2021/05/26 01:40:58;;;;;;;3.17;1.20;;;9.70;87.50;;;;;;2071301;28;20488;-83
2021/05/26 01:41:59;;;;;;;2.60;1.10;;;9.60;87.50;;;;;;2072206;28;20049;-84
2021/05/26 01:43:00;;;;;;;2.30;0.95;;;9.70;87.80;;;;;;2070036;28;20470;-83
2021/05/26 01:44:02;;;;;;;2.58;0.90;;;9.70;87.80;;;;;;2058007;28;20030;-84
2021/05/26 01:45:05;;;;;;;1.98;0.95;;;9.70;87.80;;;;;;2065957;28;20035;-83
2021/05/26 01:46:06;;;;;;;1.60;0.90;;;9.60;87.90;;;;;;2078964;28;20172;-83
2021/05/26 01:47:07;;;;;;;1.50;0.85;;;9.60;87.90;;;;;;2072119;28;20080;-83
2021/05/26 01:48:08;;;;;;;1.20;0.80;;;9.60;88.00;;;;;;2054045;28;20073;-83
2021/05/26 01:49:09;;;;;;;1.75;0.90;;;9.60;88.10;;;;;;2067081;28;20373;-83
2021/05/26 01:50:21;;;;;;;1.95;0.80;;;9.60;88.10;;;;;;2076888;28;20022;-83
2021/05/26 01:51:22;;;;;;;2.85;1.23;;;9.60;88.30;;;;;;2065018;28;20501;-84
2021/05/26 01:52:23;;;;;;;1.77;0.85;;;9.50;88.30;;;;;;2057268;28;20027;-83
2021/05/26 01:53:23;;;;;;;1.23;0.80;;;9.50;88.40;;;;;;2063784;28;20038;-84
2021/05/26 01:54:24;;;;;;;1.10;0.80;;;9.50;88.40;;;;;;2060026;28;20033;-83
2021/05/26 01:55:25;;;;;;;1.63;0.90;;;9.50;88.60;;;;;;2062996;28;20057;-83
2021/05/26 01:56:28;;;;;;;2.30;1.08;;;9.50;88.60;;;;;;2055713;28;20062;-83
2021/05/26 01:57:29;;;;;;;1.23;0.85;;;9.50;88.80;;;;;;2056359;28;20046;-84
2021/05/26 01:58:29;;;;;;;1.67;0.88;;;9.50;88.80;;;;;;2068588;28;20030;-83
2021/05/26 01:59:30;;;;;;;2.25;0.90;;;9.50;88.80;;;;;;2072108;28;20037;-83
2021/05/26 02:00:31;;;;;;;1.73;0.90;;;9.50;88.90;;;;;;2080227;28;20074;-83
2021/05/26 02:01:32;;;;;;;2.50;0.90;;;9.50;89.00;;;;;;2079919;28;20039;-83
2021/05/26 02:02:33;;;;;;;1.85;0.88;;;9.50;89.00;;;;;;2071811;28;20060;-83
2021/05/26 02:03:33;;;;;;;1.30;0.80;;;9.50;89.10;;;;;;2072194;28;20113;-84
2021/05/26 02:04:34;;;;;;;1.30;0.70;;;9.50;89.10;;;;;;2071556;28;20488;-83
2021/05/26 02:05:36;;;;;;;1.80;0.85;;;9.50;89.20;;;;;;2059287;28;20035;-83
2021/05/26 02:06:46;;;;;;;1.85;0.80;;;9.50;89.20;;;;;;2055777;28;20093;-83
2021/05/26 02:07:47;;;;;;;1.10;0.73;;;9.50;89.20;;;;;;2070627;28;20034;-83
2021/05/26 02:08:50;;;;;;;1.27;0.70;;;9.50;89.20;;;;;;2071479;28;20084;-83
2021/05/26 02:09:51;;;;;;;1.30;0.60;;;9.50;89.20;;;;;;2070083;28;20048;-83
2021/05/26 02:12:23;;;;;;;1.88;0.88;;;9.50;89.20;;;;;;2066405;28;20033;-83
2021/05/26 02:13:24;;;;;;;1.70;0.80;;;9.50;89.20;;;;;;2067519;28;20029;-83
2021/05/26 02:14:24;;;;;;;1.60;0.57;;;9.50;89.70;;;;;;2044812;28;20152;-83
2021/05/26 02:15:25;;;;;;;1.13;0.70;;;9.60;89.20;;;;;;2056348;28;20097;-83
2021/05/26 02:16:26;;;;;;;1.42;0.73;;;9.60;89.30;;;;;;2062769;28;20034;-83
2021/05/26 02:17:27;;;;;;;0.90;0.55;;;9.60;89.30;;;;;;2062895;28;20469;-84
2021/05/26 02:18:27;;;;;;;1.88;0.70;;;9.50;89.30;;;;;;2072224;28;20396;-83
2021/05/26 02:19:28;;;;;;;1.65;0.68;;;9.60;89.40;;;;;;2069678;28;20471;-83
2021/05/26 02:20:29;;;;;;;1.10;0.68;;;9.60;89.40;;;;;;2065646;28;20077;-83
2021/05/26 02:21:30;;;;;;;1.30;0.70;;;9.60;89.50;;;;;;2068184;28;20022;-83
2021/05/26 02:22:30;;;;;;;1.15;0.65;;;9.60;89.50;;;;;;2071074;28;20022;-84
2021/05/26 02:23:31;;;;;;;0.93;0.65;;;9.60;89.50;;;;;;2071779;28;20224;-83
2021/05/26 02:24:32;;;;;;;1.05;0.60;;;9.60;89.70;;;;;;2066157;28;20018;-83
2021/05/26 02:25:33;;;;;;;0.80;0.60;;;9.60;89.70;;;;;;2060292;28;20419;-83
2021/05/26 02:26:33;;;;;;;0.75;0.60;;;9.60;89.60;;;;;;2071566;28;20459;-84
2021/05/26 02:27:34;;;;;;;1.50;0.60;;;9.60;90.10;;;;;;2077708;28;20034;-84
2021/05/26 02:28:34;;;;;;;1.20;0.60;;;9.60;89.70;;;;;;2079161;28;20427;-83
2021/05/26 02:29:36;;;;;;;1.45;0.60;;;9.60;89.70;;;;;;2081021;28;20423;-83
2021/05/26 02:30:37;;;;;;;0.50;0.50;;;9.60;89.70;;;;;;2073424;28;20038;-82
2021/05/26 02:31:38;;;;;;;0.68;0.50;;;9.60;89.70;;;;;;2078219;28;20026;-84
2021/05/26 02:32:38;;;;;;;1.48;0.80;;;9.60;89.70;;;;;;2063479;28;20026;-84
2021/05/26 02:33:39;;;;;;;0.88;0.75;;;9.60;89.80;;;;;;2057557;28;20039;-84
2021/05/26 02:34:40;;;;;;;1.90;0.75;;;9.60;89.80;;;;;;2064994;28;20034;-84
2021/05/26 02:35:40;;;;;;;2.05;0.80;;;9.60;89.80;;;;;;2065108;28;20134;-84
2021/05/26 02:36:41;;;;;;;1.10;0.80;;;9.60;89.80;;;;;;2081719;28;20534;-84
2021/05/26 02:37:42;;;;;;;2.05;0.80;;;9.60;89.90;;;;;;2073772;28;20528;-84
2021/05/26 02:38:42;;;;;;;1.52;0.80;;;9.60;89.90;;;;;;2064495;28;20447;-83
2021/05/26 02:39:44;;;;;;;1.88;0.73;;;9.60;89.90;;;;;;2065990;28;20131;-83
2021/05/26 02:40:44;;;;;;;1.95;0.80;;;9.60;90.00;;;;;;2073033;28;20400;-83
2021/05/26 02:41:45;;;;;;;2.50;0.98;;;9.60;90.00;;;;;;2065178;28;20054;-83
2021/05/26 02:42:46;;;;;;;1.30;0.70;;;9.60;90.00;;;;;;2073433;28;20037;-83
2021/05/26 02:43:46;;;;;;;2.60;1.10;;;9.60;90.00;;;;;;2079883;28;20037;-84
2021/05/26 02:44:47;;;;;;;2.65;0.90;;;9.60;90.00;;;;;;2061694;28;20069;-84
2021/05/26 02:45:47;;;;;;;2.53;0.90;;;9.70;90.00;;;;;;2063824;28;20501;-83
2021/05/26 02:46:48;;;;;;;1.85;0.98;;;9.60;90.00;;;;;;2064046;28;20125;-84
2021/05/26 02:47:49;;;;;;;1.30;0.95;;;9.70;90.00;;;;;;2057130;28;20033;-83
2021/05/26 02:48:49;;;;;;;2.80;1.25;;;9.70;90.00;;;;;;2070679;28;20056;-84
2021/05/26 02:49:50;;;;;;;2.55;1.13;;;9.70;90.00;;;;;;2065264;28;20496;-84
2021/05/26 02:50:51;;;;;;;2.33;1.40;;;9.60;90.00;;;;;;2064507;28;20030;-84
2021/05/26 02:51:51;;;;;;;2.17;1.20;;;9.70;90.00;;;;;;2057066;28;20034;-84
2021/05/26 02:52:52;;;;;;;3.35;1.42;;;9.60;90.00;;;;;;2056438;28;20054;-84
2021/05/26 02:53:53;;;;;;;1.95;1.08;;;9.60;90.00;;;;;;2074464;28;20551;-84
2021/05/26 02:54:53;;;;;;;2.88;1.33;;;9.60;90.10;;;;;;2071412;28;20033;-83
2021/05/26 02:55:54;;;;;;;3.25;1.48;;;9.60;90.10;;;;;;2064914;28;20065;-84
2021/05/26 02:56:55;;;;;;;2.00;1.20;;;9.60;90.40;;;;;;2071247;28;20109;-83
2021/05/26 02:57:55;;;;;;;2.88;1.30;;;9.70;90.10;;;;;;2066459;28;20054;-83
2021/05/26 02:58:56;;;;;;;1.77;1.20;;;9.70;90.10;;;;;;2067027;28;20049;-84
2021/05/26 02:59:57;;;;;;;2.28;1.30;;;9.70;90.10;;;;;;2074863;28;20026;-83
2021/05/26 03:00:57;;;;;;;4.40;1.20;;;9.70;90.10;;;;;;2078164;28;20039;-84
2021/05/26 03:01:58;;;;;;;2.28;1.30;;;9.70;90.10;;;;;;2069325;28;20027;-83
2021/05/26 03:02:59;;;;;;;1.98;1.35;;;9.70;90.10;;;;;;2069811;28;20059;-83
2021/05/26 03:03:59;;;;;;;2.00;1.23;;;9.70;90.10;;;;;;2072243;28;20029;-84
2021/05/26 03:05:00;;;;;;;2.47;1.30;;;9.70;90.10;;;;;;2071571;28;20134;-84
2021/05/26 03:06:01;;;;;;;2.67;1.58;;;9.70;90.10;;;;;;2075864;28;20045;-83
2021/05/26 03:07:02;;;;;;;3.50;1.67;;;9.70;90.10;;;;;;2076868;28;20057;-84
2021/05/26 03:08:03;;;;;;;2.25;1.63;;;9.60;90.10;;;;;;2065029;28;20031;-84
2021/05/26 03:09:04;;;;;;;3.13;1.80;;;9.60;90.10;;;;;;2073379;28;20503;-83
2021/05/26 03:10:07;;;;;;;2.28;1.50;;;9.60;90.20;;;;;;2078999;28;20037;-83
2021/05/26 03:11:07;;;;;;;3.08;1.60;;;9.50;90.20;;;;;;2078839;28;20033;-84
2021/05/26 03:12:09;;;;;;;2.60;1.48;;;9.60;90.30;;;;;;2070762;28;20057;-84
2021/05/26 03:13:09;;;;;;;2.95;1.58;;;9.50;90.30;;;;;;2079517;28;20578;-84
2021/05/26 03:14:10;;;;;;;3.97;1.77;;;9.50;90.30;;;;;;2073020;28;20022;-83
2021/05/26 03:15:14;;;;;;;1.85;1.42;;;9.50;90.30;;;;;;2072947;28;20033;-83
2021/05/26 03:16:14;;;;;;;2.75;1.60;;;9.50;90.30;;;;;;2079713;28;20451;-84
2021/05/26 03:17:15;;;;;;;3.60;1.92;;;9.50;90.30;;;;;;2083839;28;20081;-84
2021/05/26 03:18:16;;;;;;;4.30;1.80;;;9.50;90.30;;;;;;2071804;28;20022;-84
2021/05/26 03:19:17;;;;;;;3.97;2.40;;;9.50;90.30;;;;;;2063247;28;20042;-84
2021/05/26 03:20:18;;;;;;;3.30;2.15;;;9.40;90.30;;;;;;2064806;28;20069;-84
2021/05/26 03:21:18;;;;;;;3.40;2.22;;;9.40;90.30;;;;;;2069722;28;20018;-84
2021/05/26 03:22:19;;;;;;;3.60;2.40;;;9.40;90.40;;;;;;2049274;28;20450;-83
2021/05/26 03:23:20;;;;;;;5.78;2.70;;;9.50;90.40;;;;;;2059170;28;20034;-83
2021/05/26 03:24:21;;;;;;;4.25;2.65;;;9.50;90.40;;;;;;2059349;28;20437;-83
2021/05/26 03:25:23;;;;;;;4.43;2.90;;;9.40;90.40;;;;;;2063407;28;20054;-84
2021/05/26 03:26:24;;;;;;;5.30;2.63;;;9.50;90.40;;;;;;2073264;28;20030;-84
2021/05/26 03:27:33;;;;;;;4.05;2.63;;;9.50;90.40;;;;;;2066099;28;20473;-84
2021/05/26 03:28:34;;;;;;;4.35;2.47;;;9.60;90.40;;;;;;2061765;28;20037;-83
2021/05/26 03:29:36;;;;;;;4.93;2.60;;;9.50;90.30;;;;;;2064714;28;20026;-84
2021/05/26 03:30:36;;;;;;;4.57;2.67;;;9.60;90.40;;;;;;2073074;28;20214;-84
2021/05/26 03:31:37;;;;;;;5.85;2.80;;;9.60;90.30;;;;;;2072402;28;20076;-84
2021/05/26 03:32:39;;;;;;;4.05;2.90;;;9.60;90.30;;;;;;2064673;28;20019;-84
2021/05/26 03:33:40;;;;;;;4.13;2.53;;;9.60;90.30;;;;;;2066986;28;20084;-84
2021/05/26 03:34:40;;;;;;;3.58;2.65;;;9.60;90.30;;;;;;2062766;28;20129;-84
2021/05/26 03:35:42;;;;;;;3.95;2.55;;;9.70;90.30;;;;;;2063479;28;20034;-84
2021/05/26 03:36:43;;;;;;;4.78;3.00;;;9.70;90.30;;;;;;2072720;28;20049;-84
2021/05/26 03:37:44;;;;;;;5.53;3.63;;;9.70;90.30;;;;;;2064501;28;20042;-84
2021/05/26 03:38:44;;;;;;;6.47;2.97;;;9.70;90.30;;;;;;2061388;28;20028;-85
2021/05/26 03:39:45;;;;;;;5.78;3.40;;;9.70;90.30;;;;;;2071389;28;20037;-84
2021/05/26 03:40:46;;;;;;;4.90;2.83;;;9.70;90.30;;;;;;2074326;28;20077;-84
2021/05/26 03:41:47;;;;;;;4.95;3.30;;;9.70;90.30;;;;;;2078673;28;20022;-84
2021/05/26 03:42:47;;;;;;;4.78;3.28;;;9.70;90.30;;;;;;2080778;28;20033;-84
2021/05/26 03:43:48;;;;;;;5.53;3.65;;;9.70;90.30;;;;;;2072124;28;20107;-84
2021/05/26 03:44:50;;;;;;;6.35;3.83;;;9.70;90.30;;;;;;2064413;28;20030;-84
2021/05/26 03:45:50;;;;;;;5.55;3.60;;;9.70;90.30;;;;;;2065215;28;20125;-84
2021/05/26 03:46:51;;;;;;;5.72;3.70;;;9.70;90.30;;;;;;2080764;28;20038;-84
2021/05/26 03:47:52;;;;;;;6.10;3.95;;;9.70;90.30;;;;;;2072934;28;20089;-84
2021/05/26 03:48:53;;;;;;;6.22;4.00;;;9.70;90.30;;;;;;2056916;28;20409;-84
2021/05/26 03:49:54;;;;;;;6.78;4.10;;;9.70;90.30;;;;;;2065091;28;20069;-84
2021/05/26 03:50:54;;;;;;;7.00;4.15;;;9.70;90.30;;;;;;2072934;28;20130;-83
2021/05/26 03:51:55;;;;;;;7.43;4.45;;;9.70;90.30;;;;;;2064763;28;20026;-84
2021/05/26 03:52:56;;;;;;;6.85;4.40;;;9.80;90.40;;;;;;2076940;28;20079;-84
2021/05/26 03:53:59;;;;;;;7.05;4.63;;;9.80;90.30;;;;;;2084763;28;20456;-84
2021/05/26 03:55:00;;;;;;;5.40;4.13;;;9.80;90.30;;;;;;2068237;28;20534;-84
2021/05/26 03:56:00;;;;;;;7.20;4.40;;;9.80;90.30;;;;;;2072647;28;20034;-84
2021/05/26 03:57:03;;;;;;;5.60;4.45;;;9.80;90.30;;;;;;2056446;28;20027;-84
2021/05/26 03:58:04;;;;;;;8.13;4.72;;;9.80;90.30;;;;;;2064481;28;20038;-84
2021/05/26 03:59:04;;;;;;;6.70;4.60;;;9.80;90.30;;;;;;2063537;28;20477;-84
2021/05/26 04:00:10;;;;;;;7.15;4.75;;;9.80;90.30;;;;;;2058600;28;20082;-83
2021/05/26 04:01:11;;;;;;;9.00;5.13;;;9.80;90.30;;;;;;2065468;28;20021;-84
2021/05/26 04:02:11;;;;;;;8.93;4.97;;;9.80;90.30;;;;;;2080835;28;20037;-84
2021/05/26 04:03:12;;;;;;;6.70;4.80;;;9.80;90.30;;;;;;2078256;28;20021;-85
2021/05/26 04:04:13;;;;;;;8.05;4.97;;;9.80;90.30;;;;;;2072854;28;20034;-84
2021/05/26 04:05:13;;;;;;;9.05;5.30;;;9.80;90.30;;;;;;2064754;28;20064;-85
2021/05/26 04:06:14;;;;;;;6.85;4.65;;;9.80;90.30;;;;;;2072958;28;20395;-84
2021/05/26 04:07:15;;;;;;;7.25;4.72;;;9.80;90.30;;;;;;2072932;28;20072;-84
2021/05/26 04:08:15;;;;;;;8.40;5.07;;;9.80;90.30;;;;;;2072464;28;20026;-85
2021/05/26 04:09:17;;;;;;;9.25;5.13;;;9.90;90.60;;;;;;2064249;28;20034;-84
2021/05/26 04:10:18;;;;;;;7.30;4.50;;;9.90;90.40;;;;;;2064352;28;20424;-84
2021/05/26 04:11:19;;;;;;;6.57;4.32;;;9.90;90.40;;;;;;2064160;28;20026;-84
2021/05/26 04:12:20;;;;;;;6.82;4.13;;;9.90;90.40;;;;;;2071336;28;20026;-83
2021/05/26 04:13:21;;;;;;;6.22;4.20;;;9.90;90.40;;;;;;2070732;28;20033;-84
2021/05/26 04:14:22;;;;;;;7.47;4.80;;;9.90;90.30;;;;;;2075542;28;20466;-84
2021/05/26 04:15:22;;;;;;;7.28;4.55;;;9.90;90.30;;;;;;2053328;28;20030;-84
2021/05/26 04:16:23;;;;;;;7.95;4.13;;;9.90;90.30;;;;;;2064089;28;20461;-84
2021/05/26 04:17:24;;;;;;;6.97;4.25;;;9.90;90.30;;;;;;2060830;28;20034;-84
2021/05/26 04:18:25;;;;;;;6.70;4.50;;;10.00;90.40;;;;;;2055531;28;20031;-84
2021/05/26 04:19:26;;;;;;;7.82;4.82;;;10.00;90.40;;;;;;2069039;28;20420;-84
2021/05/26 04:20:26;;;;;;;7.85;4.85;;;10.00;90.40;;;;;;2063536;28;20054;-84
2021/05/26 04:21:27;;;;;;;10.02;5.40;;;10.00;90.40;;;;;;2048773;28;20027;-84
2021/05/26 04:22:28;;;;;;;7.90;4.65;;;10.00;90.40;;;;;;2056389;28;20135;-83
2021/05/26 04:23:28;;;;;;;8.57;4.70;;;10.00;90.30;;;;;;2067961;28;20030;-84
2021/05/26 04:24:29;;;;;;;7.72;4.45;;;10.00;90.30;;;;;;2065785;28;20125;-83
2021/05/26 04:25:30;;;;;;;7.97;4.63;;;10.00;90.30;;;;;;2065405;28;20038;-83
2021/05/26 04:26:30;;;;;;;8.95;4.75;;;10.00;90.30;;;;;;2063494;28;20039;-84
2021/05/26 04:27:31;;;;;;;8.20;4.30;;;10.00;90.30;;;;;;2056226;28;20031;-84
2021/05/26 04:28:32;;;;;;;8.48;5.05;;;10.00;90.30;;;;;;2069216;28;20031;-84
2021/05/26 04:29:33;;;;;;;8.50;4.95;;;10.00;90.30;;;;;;2074807;28;20030;-83
2021/05/26 04:30:34;;;;;;;8.38;4.78;;;10.00;90.30;;;;;;2073976;28;20515;-83
2021/05/26 04:31:34;;;;;;;8.55;4.43;;;10.00;90.30;;;;;;2078038;28;20053;-83
2021/05/26 04:32:35;;;;;;;7.30;4.60;;;10.00;90.30;;;;;;2056599;28;20522;-84
2021/05/26 04:33:36;;;;;;;8.00;4.72;;;10.00;90.30;;;;;;2063263;28;20312;-83
2021/05/26 04:34:36;;;;;;;7.93;4.13;;;10.10;90.30;;;;;;2075359;28;20033;-83
2021/05/26 04:35:37;;;;;;;7.93;4.78;;;10.10;90.30;;;;;;2079811;28;20029;-83
2021/05/26 04:36:38;;;;;;;8.10;4.90;;;10.10;90.30;;;;;;2083216;28;20045;-84
2021/05/26 04:37:39;;;;;;;7.63;4.53;;;10.10;90.30;;;;;;2077488;28;20017;-83
2021/05/26 04:38:39;;;;;;;6.60;4.47;;;10.10;90.30;;;;;;2088656;28;20079;-82
2021/05/26 04:39:40;;;;;;;7.68;4.95;;;10.10;90.30;;;;;;2066278;28;20046;-82
2021/05/26 04:40:41;;;;;;;8.00;5.00;;;10.10;90.20;;;;;;2082312;28;20056;-83
2021/05/26 04:41:41;;;;;;;9.77;4.95;;;10.10;90.30;;;;;;2090230;28;20025;-83
2021/05/26 04:42:42;;;;;;;7.93;4.55;;;10.10;90.30;;;;;;2081035;28;20042;-84
2021/05/26 04:43:43;;;;;;;6.85;4.32;;;10.10;90.30;;;;;;2075456;28;20033;-84
2021/05/26 04:44:44;;;;;;;6.97;4.43;;;10.20;90.30;;;;;;2077906;28;20428;-84
2021/05/26 04:45:44;;;;;;;8.13;4.95;;;10.20;90.30;;;;;;2078193;28;20534;-83
2021/05/26 04:46:45;;;;;;;9.80;5.13;;;10.20;90.30;;;;;;2064020;28;20044;-83
2021/05/26 04:47:46;;;;;;;7.45;4.43;;;10.20;90.30;;;;;;2065945;28;20054;-83
2021/05/26 04:48:46;;;;;;;9.02;4.38;;;10.20;90.30;;;;;;2071049;28;20049;-84
2021/05/26 04:49:47;;;;;;;7.45;4.38;;;10.20;90.20;;;;;;2073197;28;20034;-83
2021/05/26 04:50:49;;;;;;;8.45;4.63;;;10.20;90.20;;;;;;2073422;28;20038;-83
2021/05/26 04:51:49;;;;;;;9.95;4.75;;;10.20;90.20;;;;;;2081557;28;20041;-83
2021/05/26 04:52:50;;;;;;;9.10;4.63;;;10.20;90.20;;;;;;2074951;28;20044;-84
2021/05/26 04:53:51;;;;;;;8.35;4.47;;;10.20;90.20;;;;;;2077476;28;20026;-84
2021/05/26 04:54:51;;;;;;;7.50;4.22;;;10.20;90.20;;;;;;2085926;28;20075;-84
2021/05/26 04:55:52;;;;;;;9.93;4.22;;;10.20;90.20;;;;;;2076472;28;20501;-83
2021/05/26 04:56:53;;;;;;;6.82;4.15;;;10.20;90.20;;;;;;2077560;28;20081;-84
2021/05/26 04:58:04;;;;;;;8.55;4.15;;;10.20;90.10;;;;;;2072662;28;20062;-84
2021/05/26 04:59:05;;;;;;;8.10;3.90;;;10.20;90.20;;;;;;2072527;28;20105;-83
2021/05/26 05:00:06;;;;;;;9.40;4.15;;;10.10;90.10;;;;;;2072419;28;20404;-84
2021/05/26 05:01:07;;;;;;;7.28;3.95;;;10.10;90.10;;;;;;2072223;28;20030;-84
2021/05/26 05:02:08;;;;;;;8.32;3.65;;;10.10;90.10;;;;;;2076625;28;20059;-83
2021/05/26 05:03:08;;;;;;;6.47;3.55;;;10.10;90.10;;;;;;2076650;28;20025;-84
2021/05/26 05:04:09;;;;;;;7.80;3.45;;;10.10;90.10;;;;;;2074207;28;20034;-84
2021/05/26 05:05:10;;;;;;;5.50;2.97;;;10.10;90.10;;;;;;2072570;28;20049;-84
2021/05/26 05:06:12;;;;;;;7.22;3.50;;;10.10;90.10;;;;;;2071983;28;20033;-84
2021/05/26 05:07:13;;;;;;;6.93;3.58;;;10.10;90.10;;;;;;2072902;28;20042;-84
2021/05/26 05:08:14;;;;;;;5.55;3.10;;;10.10;90.10;;;;;;2078351;28;20045;-84
2021/05/26 05:09:14;;;;;;;6.22;3.05;;;10.10;90.10;;;;;;2073846;28;20046;-83
2021/05/26 05:10:16;;;;;;;6.28;3.03;;;10.10;90.10;;;;;;2065573;28;20034;-84
2021/05/26 05:11:16;;;;;;;5.72;2.80;;;10.10;90.10;;;;;;2074419;28;20022;-84
2021/05/26 05:12:17;;;;;;;7.13;3.55;;;10.10;90.10;;;;;;2072907;28;20058;-84
2021/05/26 05:13:18;;;;;;;7.18;2.80;;;10.10;90.10;;;;;;2071771;28;20034;-84
2021/05/26 05:14:18;;;;;;;6.25;2.80;;;10.10;90.10;;;;;;2073207;28;20026;-84
2021/05/26 05:15:19;;;;;;;6.18;2.95;;;10.10;90.10;;;;;;2062059;28;20034;-84
2021/05/26 05:16:20;;;;;;;6.03;2.90;;;10.10;90.10;;;;;;2071745;28;20018;-84
2021/05/26 05:17:21;;;;;;;5.75;2.90;;;10.10;90.10;;;;;;2059864;28;20381;-83
2021/05/26 05:18:21;;;;;;;6.85;2.60;;;10.20;90.10;;;;;;2067045;28;20038;-84
2021/05/26 05:19:22;;;;;;;6.32;2.70;;;10.10;90.10;;;;;;2064244;28;20485;-84
2021/05/26 05:20:24;;;;;;;6.07;2.60;;;10.10;90.10;;;;;;2055999;28;20370;-84
2021/05/26 05:21:24;;;;;;;4.60;2.42;;;10.10;90.10;;;;;;2064485;28;20038;-84
2021/05/26 05:22:25;;;;;;;6.85;2.42;;;10.10;90.10;;;;;;2073565;28;20018;-84